createdAt,value
2017-10-01T00:01:57.746Z,56.20
2017-10-01T00:04:25.503Z,56.40
2017-10-01T00:06:53.255Z,56.70
2017-10-01T00:09:21.004Z,57.00
2017-10-01T00:11:48.750Z,57.80
2017-10-01T00:14:16.671Z,57.10
2017-10-01T00:16:44.416Z,57.10
2017-10-01T00:19:12.200Z,57.20
2017-10-01T00:21:39.949Z,57.40
2017-10-01T00:24:07.744Z,57.70
2017-10-01T00:26:35.509Z,57.80
2017-10-01T00:29:03.449Z,57.70
2017-10-01T00:31:31.215Z,57.90
2017-10-01T00:33:58.963Z,57.40
2017-10-01T00:36:26.807Z,57.30
2017-10-01T00:38:54.620Z,57.40
2017-10-01T00:41:22.362Z,57.50
2017-10-01T00:43:50.272Z,57.80
2017-10-01T00:46:18.057Z,58.20
2017-10-01T00:48:46.614Z,58.60
2017-10-01T00:51:14.440Z,58.50
2017-10-01T00:53:42.204Z,58.90
2017-10-01T00:56:10.020Z,58.20
2017-10-01T00:58:37.879Z,58.10
2017-10-01T01:01:05.627Z,58.20
2017-10-01T01:03:33.422Z,58.10
2017-10-01T01:06:01.182Z,58.50
2017-10-01T01:08:28.980Z,58.60
2017-10-01T01:10:56.823Z,58.80
2017-10-01T01:13:24.746Z,59.30
2017-10-01T01:15:52.571Z,58.70
2017-10-01T01:18:20.420Z,59.10
2017-10-01T01:20:48.256Z,59.40
2017-10-01T01:23:16.099Z,59.60
2017-10-01T01:25:44.673Z,60.00
2017-10-01T01:28:12.555Z,60.00
2017-10-01T01:30:41.132Z,60.30
2017-10-01T01:33:08.936Z,60.10
2017-10-01T01:35:36.971Z,60.50
2017-10-01T01:38:04.788Z,60.60
2017-10-01T01:40:32.619Z,60.60
2017-10-01T01:43:01.311Z,60.80
2017-10-01T01:45:29.903Z,60.70
2017-10-01T01:47:57.741Z,60.70
2017-10-01T01:50:25.575Z,60.50
2017-10-01T01:52:53.393Z,60.30
2017-10-01T01:55:21.263Z,60.80
2017-10-01T01:57:49.196Z,60.90
2017-10-01T02:00:17.035Z,60.90
2017-10-01T02:02:44.886Z,61.00
2017-10-01T02:05:12.695Z,61.20
2017-10-01T02:07:40.461Z,61.20
2017-10-01T02:10:08.233Z,61.30
2017-10-01T02:12:36.172Z,61.20
2017-10-01T02:15:03.939Z,64.00
2017-10-01T02:17:31.737Z,60.60
2017-10-01T02:19:59.699Z,61.10
2017-10-01T02:22:27.529Z,61.30
2017-10-01T02:24:55.307Z,61.80
2017-10-01T02:27:23.078Z,61.90
2017-10-01T02:29:50.861Z,62.20
2017-10-01T02:32:18.714Z,62.40
2017-10-01T02:34:46.481Z,62.50
2017-10-01T02:37:14.280Z,62.50
2017-10-01T02:39:42.038Z,62.30
2017-10-01T02:42:09.927Z,62.10
2017-10-01T02:44:37.743Z,61.90
2017-10-01T02:47:05.752Z,61.80
2017-10-01T02:49:33.630Z,61.80
2017-10-01T02:52:01.459Z,62.00
2017-10-01T02:54:29.280Z,62.40
2017-10-01T02:56:57.091Z,62.60
2017-10-01T02:59:24.896Z,62.50
2017-10-01T03:01:52.716Z,62.80
2017-10-01T03:04:20.658Z,63.00
2017-10-01T03:06:48.554Z,63.20
2017-10-01T03:09:16.362Z,63.80
2017-10-01T03:11:44.277Z,64.10
2017-10-01T03:14:12.046Z,64.30
2017-10-01T03:16:40.578Z,64.40
2017-10-01T03:19:08.473Z,64.20
2017-10-01T03:21:36.230Z,64.10
2017-10-01T03:24:04.069Z,63.90
2017-10-01T03:26:31.967Z,64.00
2017-10-01T03:28:59.815Z,64.00
2017-10-01T03:31:27.623Z,64.30
2017-10-01T03:33:55.518Z,64.30
2017-10-01T03:36:23.351Z,64.20
2017-10-01T03:38:51.132Z,63.80
2017-10-01T03:41:18.971Z,63.70
2017-10-01T03:43:46.756Z,64.00
2017-10-01T03:46:14.657Z,64.10
2017-10-01T03:48:42.553Z,64.00
2017-10-01T03:51:10.455Z,64.20
2017-10-01T03:53:38.391Z,64.50
2017-10-01T03:56:06.217Z,64.70
2017-10-01T03:58:34.028Z,64.60
2017-10-01T04:01:01.836Z,64.60
2017-10-01T04:03:29.624Z,64.60
2017-10-01T04:05:57.361Z,64.70
2017-10-01T04:08:25.164Z,64.70
2017-10-01T04:10:52.971Z,64.70
2017-10-01T04:13:20.762Z,64.60
2017-10-01T04:15:48.579Z,65.30
2017-10-01T04:18:16.502Z,65.70
2017-10-01T04:20:44.320Z,64.70
2017-10-01T04:23:12.118Z,64.50
2017-10-01T04:25:40.034Z,64.20
2017-10-01T04:28:07.907Z,64.40
2017-10-01T04:30:35.662Z,64.60
2017-10-01T04:33:03.424Z,64.60
2017-10-01T04:35:31.164Z,64.90
2017-10-01T04:37:58.984Z,64.70
2017-10-01T04:40:26.815Z,64.90
2017-10-01T04:42:54.543Z,64.80
2017-10-01T04:45:22.277Z,65.10
2017-10-01T04:47:50.320Z,65.20
2017-10-01T04:50:18.320Z,64.80
2017-10-01T04:52:46.123Z,65.00
2017-10-01T04:55:14.015Z,65.00
2017-10-01T04:57:41.817Z,64.80
2017-10-01T05:00:09.596Z,64.80
2017-10-01T05:02:37.416Z,64.40
2017-10-01T05:05:05.157Z,64.00
2017-10-01T05:07:32.894Z,64.40
2017-10-01T05:10:00.768Z,64.80
2017-10-01T05:12:29.299Z,65.30
2017-10-01T05:14:57.086Z,65.30
2017-10-01T05:17:24.887Z,65.30
2017-10-01T05:19:52.680Z,65.20
2017-10-01T05:22:20.432Z,65.00
2017-10-01T05:24:48.291Z,64.90
2017-10-01T05:27:16.863Z,65.20
2017-10-01T05:29:44.608Z,65.10
2017-10-01T05:32:12.478Z,65.20
2017-10-01T05:34:40.300Z,65.10
2017-10-01T05:37:08.035Z,65.10
2017-10-01T05:39:35.944Z,65.20
2017-10-01T05:42:03.744Z,65.20
2017-10-01T05:44:31.469Z,65.60
2017-10-01T05:46:59.284Z,65.60
2017-10-01T05:49:27.027Z,66.40
2017-10-01T05:51:54.832Z,66.50
2017-10-01T05:54:22.650Z,66.50
2017-10-01T05:56:50.460Z,66.80
2017-10-01T05:59:18.263Z,67.10
2017-10-01T06:01:46.856Z,67.60
2017-10-01T06:04:15.069Z,67.40
2017-10-01T06:06:42.885Z,67.80
2017-10-01T06:09:10.635Z,67.90
2017-10-01T06:11:38.427Z,68.70
2017-10-01T06:14:06.792Z,69.40
2017-10-01T06:16:34.601Z,69.10
2017-10-01T06:19:02.407Z,69.20
2017-10-01T06:21:30.156Z,69.50
2017-10-01T06:23:57.966Z,69.50
2017-10-01T06:26:25.723Z,69.30
2017-10-01T06:28:53.467Z,69.50
2017-10-01T06:31:21.302Z,69.70
2017-10-01T06:33:49.121Z,70.30
2017-10-01T06:36:16.952Z,70.60
2017-10-01T06:38:44.713Z,70.70
2017-10-01T06:41:12.449Z,71.00
2017-10-01T06:43:41.099Z,70.60
2017-10-01T06:46:08.866Z,70.60
2017-10-01T06:48:36.700Z,70.30
2017-10-01T06:51:04.530Z,70.30
2017-10-01T06:53:33.130Z,69.00
2017-10-01T06:56:00.955Z,68.90
2017-10-01T06:58:28.721Z,70.20
2017-10-01T07:00:56.558Z,69.50
2017-10-01T07:03:24.351Z,68.60
2017-10-01T07:05:52.168Z,67.60
2017-10-01T07:08:20.012Z,68.50
2017-10-01T07:10:48.562Z,68.50
2017-10-01T07:13:17.305Z,68.50
2017-10-01T07:15:46.874Z,68.60
2017-10-01T07:18:14.664Z,68.60
2017-10-01T07:20:43.194Z,67.40
2017-10-01T07:23:10.949Z,68.00
2017-10-01T07:25:38.910Z,67.10
2017-10-01T07:28:06.726Z,67.50
2017-10-01T07:30:34.508Z,67.30
2017-10-01T07:33:02.281Z,67.80
2017-10-01T07:35:30.023Z,68.50
2017-10-01T07:37:57.776Z,68.20
2017-10-01T07:40:25.610Z,69.00
2017-10-01T07:42:53.376Z,68.70
2017-10-01T07:45:22.257Z,70.00
2017-10-01T07:47:50.870Z,71.20
2017-10-01T07:50:18.656Z,71.20
2017-10-01T07:52:46.529Z,72.90
2017-10-01T07:55:14.355Z,73.60
2017-10-01T07:57:42.102Z,74.40
2017-10-01T08:00:09.981Z,73.60
2017-10-01T08:02:38.304Z,73.00
2017-10-01T08:05:07.214Z,74.40
2017-10-01T08:07:36.897Z,74.30
2017-10-01T08:10:04.713Z,74.70
2017-10-01T08:12:32.472Z,74.40
2017-10-01T08:15:00.293Z,74.40
2017-10-01T08:17:28.092Z,75.00
2017-10-01T08:19:55.909Z,75.60
2017-10-01T08:22:24.595Z,74.80
2017-10-01T08:24:53.277Z,76.50
2017-10-01T08:27:21.038Z,76.30
2017-10-01T08:29:49.786Z,76.00
2017-10-01T08:32:17.558Z,75.80
2017-10-01T08:34:45.326Z,75.80
2017-10-01T08:37:13.169Z,74.90
2017-10-01T08:39:40.962Z,75.70
2017-10-01T08:42:08.788Z,76.80
2017-10-01T08:44:36.653Z,77.80
2017-10-01T08:47:04.410Z,77.70
2017-10-01T08:49:32.943Z,78.70
2017-10-01T08:52:00.711Z,78.70
2017-10-01T08:54:28.524Z,76.90
2017-10-01T08:56:56.281Z,78.30
2017-10-01T08:59:24.056Z,77.80
2017-10-01T09:01:51.874Z,78.50
2017-10-01T09:04:19.677Z,76.60
2017-10-01T09:06:47.460Z,76.90
2017-10-01T09:09:16.014Z,78.30
2017-10-01T09:11:44.140Z,78.20
2017-10-01T09:14:11.923Z,77.20
2017-10-01T09:16:40.093Z,77.50
2017-10-01T09:19:07.841Z,76.80
2017-10-01T09:21:36.412Z,77.40
2017-10-01T09:24:05.819Z,77.30
2017-10-01T09:26:33.625Z,76.30
2017-10-01T09:29:02.969Z,76.50
2017-10-01T09:31:31.172Z,76.80
2017-10-01T09:34:00.895Z,76.10
2017-10-01T09:36:28.917Z,75.30
2017-10-01T09:38:57.484Z,74.60
2017-10-01T09:41:30.921Z,75.60
2017-10-01T09:43:58.756Z,75.60
2017-10-01T09:46:28.728Z,75.40
2017-10-01T09:48:57.357Z,73.40
2017-10-01T09:51:29.331Z,73.30
2017-10-01T09:53:59.044Z,73.60
2017-10-01T09:56:28.432Z,73.00
2017-10-01T09:58:58.727Z,73.00
2017-10-01T10:01:28.811Z,72.70
2017-10-01T10:04:00.835Z,79.80
2017-10-01T10:06:30.146Z,79.10
2017-10-01T10:09:00.032Z,75.50
2017-10-01T10:11:31.589Z,76.20
2017-10-01T10:14:01.767Z,72.10
2017-10-01T10:16:31.312Z,70.40
2017-10-01T10:19:03.228Z,70.80
2017-10-01T10:21:32.348Z,71.80
2017-10-01T10:24:02.504Z,70.90
2017-10-01T10:26:30.366Z,71.90
2017-10-01T10:28:58.177Z,71.30
2017-10-01T10:31:25.945Z,72.10
2017-10-01T10:33:53.815Z,72.50
2017-10-01T10:36:21.555Z,73.00
2017-10-01T10:38:49.299Z,72.60
2017-10-01T10:41:17.060Z,74.80
2017-10-01T10:43:44.821Z,71.30
2017-10-01T10:46:12.643Z,71.90
2017-10-01T10:48:40.466Z,72.60
2017-10-01T10:51:08.242Z,73.20
2017-10-01T10:53:35.981Z,72.90
2017-10-01T10:56:03.771Z,73.40
2017-10-01T10:58:31.629Z,77.10
2017-10-01T11:00:59.405Z,79.20
2017-10-01T11:03:27.254Z,70.00
2017-10-01T11:05:55.060Z,70.80
2017-10-01T11:08:22.853Z,80.20
2017-10-01T11:10:50.874Z,76.30
2017-10-01T11:13:18.616Z,76.00
2017-10-01T11:15:46.416Z,78.50
2017-10-01T11:18:14.289Z,72.40
2017-10-01T11:20:42.034Z,73.50
2017-10-01T11:23:09.851Z,76.00
2017-10-01T11:25:37.755Z,75.80
2017-10-01T11:28:05.546Z,72.70
2017-10-01T11:30:33.306Z,76.30
2017-10-01T11:33:01.902Z,75.20
2017-10-01T11:35:29.623Z,71.00
2017-10-01T11:37:57.467Z,68.00
2017-10-01T11:40:25.330Z,73.60
2017-10-01T11:42:54.967Z,73.80
2017-10-01T11:45:26.515Z,74.50
2017-10-01T11:47:54.270Z,69.00
2017-10-01T11:50:22.111Z,68.00
2017-10-01T11:52:50.682Z,67.80
2017-10-01T11:55:18.442Z,67.10
2017-10-01T11:57:46.247Z,68.30
2017-10-01T12:00:14.067Z,76.80
2017-10-01T12:02:41.811Z,69.30
2017-10-01T12:05:09.992Z,70.80
2017-10-01T12:07:37.795Z,69.50
2017-10-01T12:10:05.566Z,69.80
2017-10-01T12:12:33.392Z,70.40
2017-10-01T12:15:01.259Z,69.70
2017-10-01T12:17:29.066Z,72.40
2017-10-01T12:19:56.839Z,78.00
2017-10-01T12:22:24.652Z,70.80
2017-10-01T12:24:52.416Z,70.70
2017-10-01T12:27:21.464Z,70.50
2017-10-01T12:29:49.800Z,76.90
2017-10-01T12:32:17.642Z,74.70
2017-10-01T12:34:47.715Z,72.50
2017-10-01T12:37:16.652Z,67.20
2017-10-01T12:39:45.522Z,72.00
2017-10-01T12:42:13.585Z,67.00
2017-10-01T12:44:41.327Z,68.40
2017-10-01T12:47:09.134Z,70.60
2017-10-01T12:49:36.970Z,68.50
2017-10-01T12:52:04.779Z,67.60
2017-10-01T12:54:32.514Z,68.90
2017-10-01T12:57:00.827Z,73.10
2017-10-01T12:59:28.578Z,71.00
2017-10-01T13:02:02.057Z,69.60
2017-10-01T13:04:29.841Z,74.40
2017-10-01T13:06:57.698Z,73.80
2017-10-01T13:09:26.467Z,71.90
2017-10-01T13:11:54.364Z,70.30
2017-10-01T13:14:22.188Z,74.30
2017-10-01T13:16:49.960Z,72.70
2017-10-01T13:19:17.714Z,69.10
2017-10-01T13:21:45.535Z,69.50
2017-10-01T13:24:13.291Z,70.50
2017-10-01T13:26:41.098Z,72.90
2017-10-01T13:29:08.940Z,74.20
2017-10-01T13:31:36.710Z,70.00
2017-10-01T13:34:04.535Z,69.70
2017-10-01T13:36:32.406Z,75.80
2017-10-01T13:39:00.234Z,75.20
2017-10-01T13:41:28.035Z,73.90
2017-10-01T13:43:55.932Z,72.50
2017-10-01T13:46:23.730Z,74.40
2017-10-01T13:48:51.494Z,72.10
2017-10-01T13:51:19.354Z,73.50
2017-10-01T13:53:47.164Z,73.00
2017-10-01T13:56:14.986Z,73.00
2017-10-01T13:58:42.818Z,68.00
2017-10-01T14:01:10.603Z,73.60
2017-10-01T14:03:38.480Z,69.60
2017-10-01T14:06:06.253Z,73.10
2017-10-01T14:08:34.040Z,67.40
2017-10-01T14:11:01.801Z,68.00
2017-10-01T14:13:29.651Z,72.50
2017-10-01T14:15:57.461Z,75.00
2017-10-01T14:18:25.974Z,70.80
2017-10-01T14:20:53.792Z,70.80
2017-10-01T14:23:21.538Z,68.00
2017-10-01T14:25:49.275Z,73.50
2017-10-01T14:28:17.156Z,72.10
2017-10-01T14:44:10.427Z,69.30
2017-10-01T14:46:38.269Z,74.30
2017-10-01T14:49:06.016Z,67.40
2017-10-01T14:51:34.544Z,65.90
2017-10-01T14:54:02.267Z,65.60
2017-10-01T14:56:30.077Z,72.60
2017-10-01T14:58:57.860Z,67.40
2017-10-01T15:01:25.666Z,64.40
2017-10-01T15:03:53.447Z,71.10
2017-10-01T15:06:21.367Z,71.00
2017-10-01T15:08:49.169Z,67.00
2017-10-01T15:11:16.960Z,67.50
2017-10-01T15:13:44.936Z,70.80
2017-10-01T15:16:12.765Z,72.70
2017-10-01T15:18:40.626Z,68.80
2017-10-01T15:21:08.390Z,68.30
2017-10-01T15:23:36.184Z,68.90
2017-10-01T15:26:05.149Z,69.60
2017-10-01T15:28:33.086Z,71.50
2017-10-01T15:31:00.840Z,70.60
2017-10-01T15:33:28.610Z,72.10
2017-10-01T15:35:56.465Z,69.70
2017-10-01T15:38:24.285Z,75.40
2017-10-01T15:40:52.079Z,70.10
2017-10-01T15:43:19.911Z,71.80
2017-10-01T15:45:47.725Z,70.60
2017-10-01T15:48:16.340Z,70.10
2017-10-01T15:50:44.107Z,70.10
2017-10-01T15:53:11.865Z,70.10
2017-10-01T15:55:39.748Z,72.50
2017-10-01T15:58:07.500Z,73.00
2017-10-01T16:00:35.290Z,68.90
2017-10-01T16:03:03.045Z,75.80
2017-10-01T16:05:30.798Z,69.40
2017-10-01T16:07:58.657Z,67.10
2017-10-01T16:10:26.490Z,76.50
2017-10-01T16:12:54.245Z,68.90
2017-10-01T16:15:23.025Z,73.10
2017-10-01T16:17:50.825Z,69.00
2017-10-01T16:20:18.764Z,63.60
2017-10-01T16:22:46.504Z,64.60
2017-10-01T16:25:14.444Z,67.30
2017-10-01T16:27:44.205Z,66.90
2017-10-01T16:30:13.027Z,71.30
2017-10-01T16:32:40.876Z,71.10
2017-10-01T16:35:08.678Z,68.50
2017-10-01T16:37:36.659Z,76.90
2017-10-01T16:40:04.541Z,75.30
2017-10-01T16:42:32.275Z,66.10
2017-10-01T16:45:00.130Z,75.20
2017-10-01T16:47:27.880Z,65.40
2017-10-01T16:49:55.816Z,67.70
2017-10-01T16:52:23.706Z,74.50
2017-10-01T16:54:51.456Z,71.10
2017-10-01T16:57:19.222Z,63.60
2017-10-01T16:59:47.109Z,71.40
2017-10-01T17:02:14.936Z,67.50
2017-10-01T17:04:42.834Z,66.40
2017-10-01T17:07:10.841Z,74.80
2017-10-01T17:09:38.705Z,64.70
2017-10-01T17:12:06.575Z,69.90
2017-10-01T17:14:34.365Z,71.20
2017-10-01T17:17:02.183Z,73.10
2017-10-01T17:19:30.042Z,61.70
2017-10-01T17:21:57.927Z,72.10
2017-10-01T17:24:26.962Z,75.60
2017-10-01T17:26:54.903Z,68.00
2017-10-01T17:29:23.505Z,73.40
2017-10-01T17:31:51.398Z,73.30
2017-10-01T17:34:19.326Z,62.80
2017-10-01T17:36:47.202Z,61.00
2017-10-01T17:39:14.985Z,71.70
2017-10-01T17:41:50.642Z,71.90
2017-10-01T17:44:18.462Z,60.80
2017-10-01T17:46:46.228Z,61.90
2017-10-01T17:49:14.597Z,62.20
2017-10-01T17:51:42.486Z,63.20
2017-10-01T17:54:10.346Z,65.60
2017-10-01T17:56:38.121Z,64.50
2017-10-01T17:59:05.919Z,64.40
2017-10-01T18:01:33.666Z,65.50
2017-10-01T18:04:01.403Z,65.80
2017-10-01T18:06:29.222Z,66.20
2017-10-01T18:08:56.990Z,66.90
2017-10-01T18:11:24.820Z,67.30
2017-10-01T18:13:52.718Z,67.80
2017-10-01T18:16:20.488Z,66.30
2017-10-01T18:18:48.316Z,70.20
2017-10-01T18:21:16.074Z,64.80
2017-10-01T18:23:44.699Z,65.10
2017-10-01T18:26:12.432Z,64.60
2017-10-01T18:28:40.283Z,69.00
2017-10-01T18:31:08.824Z,64.20
2017-10-01T18:33:36.641Z,64.00
2017-10-01T18:36:05.436Z,63.20
2017-10-01T18:38:33.240Z,63.00
2017-10-01T18:41:01.059Z,64.60
2017-10-01T18:43:28.893Z,64.90
2017-10-01T18:45:56.704Z,64.80
2017-10-01T18:48:24.837Z,64.40
2017-10-01T18:50:54.707Z,64.40
2017-10-01T18:53:23.291Z,64.50
2017-10-01T18:55:51.078Z,64.40
2017-10-01T18:58:18.935Z,64.20
2017-10-01T19:00:48.676Z,64.40
2017-10-01T19:03:17.501Z,63.50
2017-10-01T19:05:45.324Z,63.80
2017-10-01T19:08:15.020Z,63.70
2017-10-01T19:10:43.430Z,63.30
2017-10-01T19:13:12.487Z,62.90
2017-10-01T19:15:40.309Z,62.70
2017-10-01T19:18:08.136Z,63.00
2017-10-01T19:20:37.742Z,63.10
2017-10-01T19:23:06.295Z,63.10
2017-10-01T19:25:36.671Z,61.90
2017-10-01T19:28:05.386Z,61.70
2017-10-01T19:30:34.984Z,62.10
2017-10-01T19:33:04.555Z,62.30
2017-10-01T19:35:34.537Z,62.00
2017-10-01T19:38:03.182Z,62.00
2017-10-01T19:40:32.700Z,62.20
2017-10-01T19:43:01.407Z,61.60
2017-10-01T19:45:29.228Z,61.60
2017-10-01T19:47:57.000Z,61.50
2017-10-01T19:50:25.217Z,61.40
2017-10-01T19:52:53.277Z,61.50
2017-10-01T19:55:21.175Z,60.60
2017-10-01T19:57:49.092Z,60.40
2017-10-01T20:00:16.927Z,61.20
2017-10-01T20:02:45.018Z,61.70
2017-10-01T20:05:12.859Z,60.80
2017-10-01T20:07:40.596Z,61.30
2017-10-01T20:10:08.469Z,60.40
2017-10-01T20:12:36.257Z,61.50
2017-10-01T20:15:04.060Z,59.90
2017-10-01T20:17:32.651Z,60.00
2017-10-01T20:20:00.401Z,60.00
2017-10-01T20:22:29.598Z,60.20
2017-10-01T20:24:57.914Z,60.40
2017-10-01T20:27:25.762Z,60.60
2017-10-01T20:29:53.568Z,61.30
2017-10-01T20:32:21.440Z,62.00
2017-10-01T20:34:49.260Z,61.10
2017-10-01T20:37:17.776Z,61.20
2017-10-01T20:39:45.611Z,61.20
2017-10-01T20:42:13.434Z,61.40
2017-10-01T20:44:41.180Z,61.30
2017-10-01T20:47:09.010Z,61.30
2017-10-01T20:49:37.554Z,62.70
2017-10-01T20:52:05.309Z,61.80
2017-10-01T20:54:33.098Z,61.70
2017-10-01T20:57:00.861Z,62.00
2017-10-01T20:59:28.624Z,62.20
2017-10-01T21:01:56.365Z,62.40
2017-10-01T21:04:24.115Z,62.00
2017-10-01T21:06:51.996Z,62.40
2017-10-01T21:09:19.737Z,63.60
2017-10-01T21:11:47.545Z,63.50
2017-10-01T21:14:23.161Z,63.00
2017-10-01T21:16:52.392Z,62.20
2017-10-01T21:19:27.590Z,61.90
2017-10-01T21:21:56.420Z,62.60
2017-10-01T21:24:24.323Z,61.60
2017-10-01T21:26:52.071Z,60.90
2017-10-01T21:29:19.889Z,60.70
2017-10-01T21:31:47.781Z,61.10
2017-10-01T21:34:15.521Z,60.70
2017-10-01T21:36:43.342Z,61.60
2017-10-01T21:39:11.077Z,61.70
2017-10-01T21:41:38.881Z,61.60
2017-10-01T21:44:06.639Z,62.20
2017-10-01T21:46:34.589Z,61.50
2017-10-01T21:49:02.355Z,61.80
2017-10-01T21:51:30.130Z,61.90
2017-10-01T21:53:57.948Z,62.00
2017-10-01T21:56:25.716Z,61.90
2017-10-01T21:58:53.490Z,61.70
2017-10-01T22:01:21.343Z,60.90
2017-10-01T22:03:49.138Z,61.70
2017-10-01T22:06:17.750Z,62.00
2017-10-01T22:08:45.655Z,62.00
2017-10-01T22:11:13.475Z,62.40
2017-10-01T22:13:41.224Z,61.70
2017-10-01T22:16:09.033Z,61.10
2017-10-01T22:18:36.778Z,62.30
2017-10-01T22:21:04.535Z,62.20
2017-10-01T22:23:32.406Z,61.90
2017-10-01T22:26:00.152Z,62.30
2017-10-01T22:28:27.882Z,61.90
2017-10-01T22:30:55.725Z,62.30
2017-10-01T22:33:23.481Z,62.80
2017-10-01T22:35:51.295Z,63.70
2017-10-01T22:38:19.127Z,62.60
2017-10-01T22:40:46.937Z,63.00
2017-10-01T22:43:14.681Z,63.20
2017-10-01T22:45:42.595Z,63.40
2017-10-01T22:48:10.407Z,63.30
2017-10-01T22:50:38.145Z,63.60
2017-10-01T22:53:05.974Z,64.00
2017-10-01T22:55:33.702Z,64.00
2017-10-01T22:58:01.485Z,64.60
2017-10-01T23:00:29.326Z,64.80
2017-10-01T23:02:57.067Z,65.20
2017-10-01T23:05:25.616Z,65.60
2017-10-01T23:07:53.450Z,65.50
2017-10-01T23:10:21.186Z,66.10
2017-10-01T23:12:48.980Z,66.40
2017-10-01T23:15:16.841Z,66.70
2017-10-01T23:17:44.659Z,67.00
2017-10-01T23:20:12.466Z,67.20
2017-10-01T23:22:40.236Z,67.40
2017-10-01T23:25:07.986Z,66.80
2017-10-01T23:27:35.797Z,66.60
2017-10-01T23:30:03.725Z,66.60
2017-10-01T23:32:32.252Z,67.60
2017-10-01T23:35:00.012Z,67.50
2017-10-01T23:37:27.920Z,67.70
2017-10-01T23:39:55.729Z,67.90
2017-10-01T23:42:23.487Z,69.20
2017-10-01T23:44:52.061Z,68.10
2017-10-01T23:47:19.815Z,67.90
2017-10-01T23:49:47.564Z,67.90
2017-10-01T23:52:15.309Z,67.90
2017-10-01T23:54:43.113Z,67.60
2017-10-01T23:57:10.841Z,67.60
2017-10-01T23:59:38.715Z,67.90
